Time;durP1;ratioP1;P1;durP2;ratioP2;P2;SDS_P1;SDS_P2;PMS_P1;PMS_P2;Temp;Humidity;BMP_temperature;BMP_pressure;BME280_temperature;BME280_humidity;BME280_pressure;Samples;Min_cycle;Max_cycle;Signal;HPM_P1;HPM_P2
2022/08/23 00:01:19;;;;;;;25.83;15.85;;;;;;;19.89;63.14;101307.31;5041544;28;20025;-59
2022/08/23 00:03:45;;;;;;;26.40;15.75;;;;;;;19.91;62.80;101308.16;5046321;28;20025;-57
2022/08/23 00:06:10;;;;;;;26.63;16.35;;;;;;;19.89;62.98;101302.88;5042857;28;20485;-59
2022/08/23 00:08:37;;;;;;;23.67;15.20;;;;;;;19.86;63.18;101300.25;5049544;28;20396;-58
2022/08/23 00:11:03;;;;;;;26.08;16.10;;;;;;;19.79;63.13;101295.91;5049570;28;20056;-59
2022/08/23 00:13:30;;;;;;;30.10;16.67;;;;;;;19.72;62.98;101292.38;5045084;28;20523;-59
2022/08/23 00:15:56;;;;;;;26.17;16.25;;;;;;;19.68;63.14;101295.94;5049250;28;20029;-59
2022/08/23 00:18:23;;;;;;;26.48;16.30;;;;;;;19.64;63.28;101297.75;5045530;28;20493;-59
2022/08/23 00:20:49;;;;;;;30.23;17.88;;;;;;;19.62;63.31;101299.53;5048120;28;20032;-56
2022/08/23 00:23:14;;;;;;;25.80;15.82;;;;;;;19.64;62.65;101292.44;5046676;28;20584;-56
2022/08/23 00:25:40;;;;;;;24.48;16.40;;;;;;;19.59;63.13;101294.22;5046639;28;20162;-56
2022/08/23 00:28:05;;;;;;;23.80;15.10;;;;;;;19.58;64.01;101291.59;5048293;28;20083;-59
2022/08/23 00:30:30;;;;;;;26.58;15.23;;;;;;;19.53;63.93;101299.56;5049399;28;20028;-56
2022/08/23 00:32:56;;;;;;;25.50;16.83;;;;;;;19.52;64.20;101289.88;5044623;28;20025;-56
2022/08/23 00:35:22;;;;;;;22.73;15.05;;;;;;;19.49;64.08;101295.19;5037199;28;20025;-56
2022/08/23 00:37:48;;;;;;;28.92;16.13;;;;;;;19.48;64.06;101287.28;5040486;28;20032;-57
2022/08/23 00:40:17;;;;;;;25.52;15.73;;;;;;;19.47;63.90;101294.34;5043881;28;20460;-57
2022/08/23 00:48:47;;;;;;;28.33;16.30;;;;;;;19.40;63.57;101295.25;5037861;28;20176;-58
2022/08/23 00:51:13;;;;;;;23.02;15.90;;;;;;;19.34;63.91;101288.22;5044977;28;20123;-58
2022/08/23 00:53:45;;;;;;;27.42;15.07;;;;;;;19.28;64.42;101293.56;5047235;28;20037;-58
2022/08/23 00:56:14;;;;;;;26.45;15.40;;;;;;;19.25;64.09;101293.59;5038155;28;20027;-59
2022/08/23 00:58:41;;;;;;;25.35;16.05;;;;;;;19.24;64.07;101294.47;5040568;28;20447;-57
2022/08/23 01:01:07;;;;;;;25.90;15.90;;;;;;;19.18;64.68;101295.38;5042260;28;20037;-56
2022/08/23 01:03:36;;;;;;;26.38;15.63;;;;;;;19.17;64.72;101306.81;5045125;28;20484;-57
2022/08/23 01:06:15;;;;;;;24.85;15.40;;;;;;;19.15;64.27;101310.34;5039371;28;20025;-57
2022/08/23 01:08:47;;;;;;;28.23;16.00;;;;;;;19.09;64.75;101305.97;5035660;28;20030;-57
2022/08/23 01:11:22;;;;;;;28.90;16.92;;;;;;;19.08;64.69;101301.56;5036560;28;20029;-58
2022/08/23 01:13:56;;;;;;;29.75;16.08;;;;;;;19.04;65.36;101297.19;5041213;28;20107;-58
2022/08/23 01:16:38;;;;;;;25.73;16.85;;;;;;;19.01;65.05;101302.50;5048912;28;20025;-57
2022/08/23 01:19:11;;;;;;;24.27;15.38;;;;;;;18.98;64.76;101299.88;5043358;28;20100;-58
2022/08/23 01:21:51;;;;;;;23.35;15.57;;;;;;;18.93;65.04;101303.41;5043868;28;20036;-58
2022/08/23 01:24:17;;;;;;;25.35;15.07;;;;;;;18.89;65.67;101301.66;5041569;28;20031;-58
2022/08/23 01:26:43;;;;;;;24.42;15.40;;;;;;;18.87;65.65;101300.78;5039341;28;20030;-58
2022/08/23 01:29:08;;;;;;;28.98;15.52;;;;;;;18.86;65.46;101309.59;5050215;28;20036;-58
2022/08/23 01:31:35;;;;;;;27.33;16.10;;;;;;;18.80;65.54;101306.94;5052637;28;20552;-58
2022/08/23 01:34:06;;;;;;;26.60;16.40;;;;;;;18.78;65.41;101306.03;5051212;28;20608;-57
2022/08/23 01:36:33;;;;;;;25.85;16.30;;;;;;;18.75;65.38;101303.41;5051181;28;20025;-57
2022/08/23 01:38:58;;;;;;;28.35;16.65;;;;;;;18.71;65.48;101297.28;5049319;28;20032;-57
2022/08/23 01:41:23;;;;;;;27.95;16.23;;;;;;;18.71;65.58;101296.38;5042091;28;20469;-57
2022/08/23 01:43:50;;;;;;;30.70;16.00;;;;;;;18.68;66.11;101301.69;5048737;28;20031;-57
2022/08/23 01:46:19;;;;;;;26.45;16.65;;;;;;;18.65;65.86;101296.41;5042627;28;20024;-57
2022/08/23 01:48:46;;;;;;;28.73;16.75;;;;;;;18.63;65.81;101308.75;5049972;28;20030;-58
2022/08/23 01:51:15;;;;;;;27.20;16.25;;;;;;;18.62;66.16;101317.53;5049457;28;20060;-58
2022/08/23 01:53:40;;;;;;;25.60;16.17;;;;;;;18.59;65.83;101321.06;5041131;28;20550;-58
2022/08/23 01:56:07;;;;;;;29.10;18.77;;;;;;;18.53;66.37;101313.16;5034567;28;20382;-58
2022/08/23 01:58:33;;;;;;;30.90;18.05;;;;;;;18.52;65.87;101312.25;5048463;28;20036;-57
2022/08/23 02:01:01;;;;;;;30.95;18.55;;;;;;;18.52;65.82;101309.63;5051243;28;20504;-58
2022/08/23 02:03:27;;;;;;;35.85;20.23;;;;;;;18.48;66.26;101314.91;5052349;28;20016;-57
2022/08/23 02:05:53;;;;;;;30.27;19.23;;;;;;;18.46;66.30;101309.63;5045978;28;20033;-58
2022/08/23 02:11:13;;;;;;;34.33;19.05;;;;;;;18.37;66.44;101314.94;5043206;28;20044;-58
2022/08/23 02:13:39;;;;;;;29.15;18.15;;;;;;;18.35;66.67;101303.50;5047904;28;20052;-58
2022/08/23 02:16:05;;;;;;;30.05;18.15;;;;;;;18.32;66.80;101303.50;5036094;28;20025;-57
2022/08/23 02:18:30;;;;;;;29.73;18.10;;;;;;;18.30;67.08;101306.13;5048645;28;20086;-57
2022/08/23 02:20:55;;;;;;;27.80;18.02;;;;;;;18.30;66.77;101308.78;5045501;28;20053;-57
2022/08/23 02:23:21;;;;;;;30.17;18.17;;;;;;;18.28;66.97;101307.00;5047848;28;20171;-57
2022/08/23 02:25:49;;;;;;;31.20;17.95;;;;;;;18.23;67.11;101307.94;5050419;28;20029;-57
2022/08/23 02:28:14;;;;;;;31.67;18.00;;;;;;;18.24;67.43;101306.16;5048731;28;20021;-56
2022/08/23 02:30:40;;;;;;;30.45;17.98;;;;;;;18.23;67.44;101304.38;5055811;28;20515;-57
2022/08/23 02:33:05;;;;;;;31.80;18.85;;;;;;;18.18;68.24;101308.81;5044925;28;20091;-57
2022/08/23 02:35:32;;;;;;;35.22;18.10;;;;;;;18.17;68.01;101310.53;5036449;28;20033;-57
2022/08/23 02:38:02;;;;;;;30.55;18.00;;;;;;;18.12;68.50;101309.69;5037092;28;20108;-57
2022/08/23 02:40:28;;;;;;;29.50;18.63;;;;;;;18.12;68.80;101314.97;5048586;28;20036;-57
2022/08/23 02:42:53;;;;;;;28.50;18.60;;;;;;;18.08;68.84;101311.44;5049210;28;20045;-57
2022/08/23 02:45:18;;;;;;;28.52;17.85;;;;;;;18.04;69.19;101303.53;5044942;28;20033;-57
2022/08/23 02:47:45;;;;;;;30.48;17.73;;;;;;;18.03;69.39;101307.03;5051119;28;20161;-57
2022/08/23 02:50:10;;;;;;;28.35;17.67;;;;;;;18.02;69.42;101306.16;5047577;28;20068;-57
2022/08/23 02:52:36;;;;;;;31.60;17.92;;;;;;;17.99;68.93;101314.06;5050497;28;20484;-57
2022/08/23 02:55:01;;;;;;;30.23;17.90;;;;;;;17.98;68.93;101316.72;5038568;28;20028;-57
2022/08/23 02:57:27;;;;;;;26.38;17.02;;;;;;;17.97;69.01;101317.59;5041504;28;20279;-57
2022/08/23 02:59:53;;;;;;;28.90;17.30;;;;;;;17.97;69.11;101317.59;5042257;28;20123;-57
2022/08/23 03:02:19;;;;;;;31.88;17.63;;;;;;;17.95;69.26;101316.72;5049014;28;20060;-58
2022/08/23 03:04:44;;;;;;;28.52;17.52;;;;;;;17.96;68.91;101318.44;5049968;28;20108;-57
2022/08/23 03:07:10;;;;;;;28.98;17.77;;;;;;;17.95;69.96;101316.72;5050638;28;20028;-57
2022/08/23 03:09:35;;;;;;;26.13;18.13;;;;;;;17.92;70.42;101319.34;5045901;28;20039;-57
2022/08/23 03:12:01;;;;;;;30.17;19.20;;;;;;;17.88;70.89;101321.91;5044272;28;20466;-57
2022/08/23 03:14:26;;;;;;;27.70;18.23;;;;;;;17.89;70.45;101331.59;5050298;28;20029;-57
2022/08/23 03:16:53;;;;;;;30.20;18.85;;;;;;;17.87;70.12;101329.84;5050136;28;20036;-57
2022/08/23 03:19:18;;;;;;;28.80;18.40;;;;;;;17.87;70.27;101335.09;5043561;28;20020;-57
2022/08/23 03:21:43;;;;;;;29.48;18.63;;;;;;;17.86;70.16;101334.25;5049819;28;20480;-57
2022/08/23 03:24:09;;;;;;;32.28;19.33;;;;;;;17.86;70.38;101334.25;5049201;28;20488;-57
2022/08/23 03:26:34;;;;;;;30.92;19.27;;;;;;;17.87;70.29;101335.09;5046394;28;20067;-58
2022/08/23 03:29:01;;;;;;;33.03;19.80;;;;;;;17.86;70.15;101334.25;5047435;28;20737;-58
2022/08/23 03:31:26;;;;;;;30.88;19.35;;;;;;;17.86;70.89;101336.88;5049901;28;20048;-58
2022/08/23 03:33:52;;;;;;;33.30;19.38;;;;;;;17.86;71.09;101333.38;5049468;28;20055;-59
2022/08/23 03:36:17;;;;;;;30.30;18.92;;;;;;;17.86;71.11;101341.28;5046456;28;20484;-58
2022/08/23 03:38:44;;;;;;;33.15;19.23;;;;;;;17.84;71.37;101333.38;5049320;28;20108;-58
2022/08/23 03:41:09;;;;;;;32.25;18.58;;;;;;;17.85;71.19;101340.38;5044864;28;20057;-58
2022/08/23 03:43:35;;;;;;;35.50;20.02;;;;;;;17.85;71.89;101340.38;5045395;28;20032;-57
2022/08/23 03:46:00;;;;;;;38.63;22.02;;;;;;;17.83;72.25;101342.16;5043902;28;20021;-57
2022/08/23 03:48:26;;;;;;;37.03;21.13;;;;;;;17.85;72.08;101342.16;5043216;28;20068;-58
2022/08/23 03:50:51;;;;;;;36.75;20.45;;;;;;;17.86;71.59;101338.63;5037150;28;20029;-58
2022/08/23 03:53:17;;;;;;;34.90;20.48;;;;;;;17.84;71.93;101338.63;5049860;28;20227;-58
2022/08/23 03:55:43;;;;;;;36.45;21.35;;;;;;;17.86;71.95;101344.78;5049264;28;20036;-58
2022/08/23 03:58:09;;;;;;;40.50;22.67;;;;;;;17.86;71.73;101338.63;5041856;28;20013;-58
2022/08/23 04:00:35;;;;;;;33.80;20.77;;;;;;;17.86;71.74;101333.38;5046507;28;20094;-58
2022/08/23 04:03:01;;;;;;;34.40;21.17;;;;;;;17.85;71.93;101343.00;5048177;28;20021;-58
2022/08/23 04:05:27;;;;;;;36.75;21.08;;;;;;;17.86;71.47;101339.50;5043359;28;20492;-57
2022/08/23 04:07:52;;;;;;;37.97;21.98;;;;;;;17.83;71.94;101342.16;5050411;28;20031;-57
2022/08/23 04:10:18;;;;;;;39.05;21.30;;;;;;;17.83;71.36;101344.78;5049788;28;20035;-57
2022/08/23 04:12:43;;;;;;;34.58;21.52;;;;;;;17.81;71.33;101343.88;5050053;28;20083;-58
2022/08/23 04:15:09;;;;;;;38.65;21.65;;;;;;;17.82;71.37;101356.19;5048561;28;20067;-58
2022/08/23 04:17:35;;;;;;;39.33;21.67;;;;;;;17.80;71.65;101350.06;5045788;28;20030;-58
2022/08/23 04:20:02;;;;;;;33.88;21.58;;;;;;;17.80;71.56;101346.50;5045739;28;20415;-59
2022/08/23 04:22:27;;;;;;;38.15;23.05;;;;;;;17.79;71.63;101350.91;5044700;28;20032;-58
2022/08/23 04:24:54;;;;;;;37.53;22.17;;;;;;;17.77;71.32;101347.41;5048866;28;20040;-58
2022/08/23 04:27:21;;;;;;;38.35;22.33;;;;;;;17.77;71.54;101347.41;5046822;28;20144;-58
2022/08/23 04:29:46;;;;;;;39.92;22.92;;;;;;;17.76;71.77;101352.69;5049177;28;20078;-57
2022/08/23 04:32:13;;;;;;;37.63;22.42;;;;;;;17.73;72.09;101351.78;5034910;28;20040;-57
2022/08/23 04:34:39;;;;;;;39.47;23.27;;;;;;;17.74;71.61;101350.03;5044765;28;20105;-58
2022/08/23 04:37:04;;;;;;;43.50;23.80;;;;;;;17.72;71.78;101355.28;5048079;28;20111;-58
2022/08/23 04:42:16;;;;;;;46.58;25.23;;;;;;;17.71;72.04;101357.94;5049314;28;20124;-58
2022/08/23 04:42:18;;;;;;;41.17;24.52;;;;;;;17.71;72.06;101358.81;5035729;28;20052;-58
2022/08/23 04:44:43;;;;;;;41.67;24.02;;;;;;;17.69;72.32;101355.28;5044025;28;20545;-57
2022/08/23 04:47:09;;;;;;;41.47;23.10;;;;;;;17.69;72.37;101357.91;5048419;28;20126;-58
2022/08/23 04:49:34;;;;;;;36.95;21.75;;;;;;;17.67;72.88;101362.31;5047303;28;20090;-57
2022/08/23 04:51:59;;;;;;;38.55;24.05;;;;;;;17.65;73.22;101363.19;5049387;28;20024;-58
2022/08/23 04:54:25;;;;;;;40.65;22.42;;;;;;;17.63;73.26;101367.59;5048743;28;20021;-58
2022/08/23 04:56:51;;;;;;;37.13;22.65;;;;;;;17.62;73.61;101373.72;5049039;28;20029;-58
2022/08/23 04:59:16;;;;;;;38.08;23.15;;;;;;;17.64;73.39;101379.88;5049261;28;20096;-59
2022/08/23 05:01:42;;;;;;;41.97;23.40;;;;;;;17.62;73.06;101374.59;5040195;28;20112;-58
2022/08/23 05:04:08;;;;;;;40.70;23.10;;;;;;;17.62;73.46;101377.22;5044405;28;20413;-58
2022/08/23 05:06:34;;;;;;;38.85;24.05;;;;;;;17.62;73.38;101374.59;5040388;28;20086;-58
2022/08/23 05:09:00;;;;;;;40.88;23.85;;;;;;;17.62;73.66;101379.00;5051136;28;20044;-57
2022/08/23 05:11:28;;;;;;;38.10;23.48;;;;;;;17.64;73.47;101379.88;5050100;28;20037;-58
2022/08/23 05:13:53;;;;;;;40.95;23.55;;;;;;;17.64;73.38;101377.22;5051305;28;20051;-57
2022/08/23 05:16:19;;;;;;;44.20;24.73;;;;;;;17.64;73.75;101374.59;5051619;28;20469;-60
2022/08/23 05:18:45;;;;;;;42.92;24.83;;;;;;;17.64;73.45;101372.84;5030573;28;20021;-58
2022/08/23 05:21:20;;;;;;;48.00;25.10;;;;;;;17.64;73.24;101380.75;5042705;28;20492;-57
2022/08/23 05:23:45;;;;;;;49.28;26.38;;;;;;;17.67;73.07;101377.22;5052720;28;20090;-57
2022/08/23 05:26:11;;;;;;;49.50;28.05;;;;;;;17.67;72.83;101375.50;5052646;28;20476;-58
2022/08/23 05:28:41;;;;;;;48.75;27.38;;;;;;;17.69;73.60;101380.78;5052144;28;20040;-58
2022/08/23 05:31:23;;;;;;;51.78;28.77;;;;;;;17.70;73.17;101383.41;5048216;28;20053;-58
2022/08/23 05:33:49;;;;;;;52.88;30.10;;;;;;;17.70;74.07;101382.53;5044514;28;20023;-58
2022/08/23 05:36:16;;;;;;;54.33;30.58;;;;;;;17.70;73.92;101383.41;5052351;28;20017;-58
2022/08/23 05:38:42;;;;;;;57.53;30.92;;;;;;;17.72;73.72;101386.03;5050969;28;20056;-57
2022/08/23 05:41:07;;;;;;;54.78;30.92;;;;;;;17.75;73.20;101395.72;5047307;28;20280;-58
2022/08/23 05:43:33;;;;;;;65.65;31.88;;;;;;;17.77;73.52;101399.22;5042481;28;20188;-56
2022/08/23 05:46:01;;;;;;;57.88;33.83;;;;;;;17.77;74.38;101407.13;5052436;28;20033;-58
2022/08/23 05:48:27;;;;;;;60.10;35.03;;;;;;;17.78;74.17;101408.91;5050803;28;20396;-58
2022/08/23 05:50:53;;;;;;;61.25;34.10;;;;;;;17.81;73.76;101417.69;5047799;28;20144;-58
2022/08/23 05:53:19;;;;;;;59.53;35.78;;;;;;;17.84;74.35;101428.28;5050377;28;20119;-58
2022/08/23 05:55:44;;;;;;;70.28;39.22;;;;;;;17.84;74.38;101422.09;5052241;28;20033;-58
2022/08/23 05:58:10;;;;;;;87.50;41.90;;;;;;;17.87;74.71;101427.38;5028499;28;20056;-57
2022/08/23 06:00:35;;;;;;;80.35;41.10;;;;;;;17.87;74.47;101423.00;5044050;28;20028;-57
2022/08/23 06:03:01;;;;;;;89.13;43.38;;;;;;;17.90;73.88;101427.41;5044530;28;20473;-58
2022/08/23 06:05:26;;;;;;;86.65;44.85;;;;;;;17.92;74.15;101430.09;5048498;28;20033;-57
2022/08/23 06:07:52;;;;;;;93.10;46.67;;;;;;;17.93;73.61;101427.44;5050114;28;20025;-57
2022/08/23 06:10:19;;;;;;;94.18;46.70;;;;;;;17.96;73.54;101432.72;5051381;28;20031;-58
2022/08/23 06:12:45;;;;;;;98.28;47.90;;;;;;;17.97;74.89;101425.69;5050810;28;20028;-58
2022/08/23 06:15:11;;;;;;;94.72;48.65;;;;;;;17.99;74.30;101426.59;5042122;28;20642;-57
2022/08/23 06:17:36;;;;;;;99.70;48.55;;;;;;;18.01;74.19;101425.69;5050565;28;20108;-58
2022/08/23 06:20:02;;;;;;;96.47;50.05;;;;;;;18.03;74.74;101425.69;5038079;28;20215;-58
2022/08/23 06:22:29;;;;;;;103.47;51.08;;;;;;;18.04;75.06;101430.09;5045973;28;20047;-58
2022/08/23 06:24:54;;;;;;;101.93;51.80;;;;;;;18.05;76.11;101429.22;5040369;28;20030;-58
2022/08/23 06:27:20;;;;;;;95.93;48.72;;;;;;;18.08;75.02;101434.50;5049395;28;20024;-58
2022/08/23 06:29:46;;;;;;;97.55;50.30;;;;;;;18.09;74.90;101431.00;5050650;28;20047;-58
2022/08/23 06:32:12;;;;;;;94.07;50.47;;;;;;;18.11;75.25;101431.88;5050799;28;20078;-57
2022/08/23 06:34:37;;;;;;;101.18;51.67;;;;;;;18.14;75.46;101437.16;5038162;28;20412;-58
2022/08/23 06:37:06;;;;;;;97.82;51.03;;;;;;;18.15;75.21;101438.03;5051800;28;20029;-58
2022/08/23 06:39:32;;;;;;;95.05;49.33;;;;;;;18.17;75.38;101433.63;5041755;28;20033;-58
2022/08/23 06:42:15;;;;;;;87.43;45.72;;;;;;;18.19;74.62;101442.41;5047376;28;20087;-58
2022/08/23 06:44:40;;;;;;;86.25;44.40;;;;;;;18.22;75.66;101443.31;5044108;28;20049;-57
2022/08/23 06:47:07;;;;;;;87.82;44.08;;;;;;;18.24;76.18;101440.69;5048062;28;20036;-58
2022/08/23 06:49:33;;;;;;;80.45;43.10;;;;;;;18.27;75.90;101431.91;5023749;28;20060;-58
2022/08/23 06:52:00;;;;;;;79.95;42.28;;;;;;;18.30;75.96;101438.03;5047810;28;20063;-58
2022/08/23 06:54:28;;;;;;;83.85;44.00;;;;;;;18.33;75.89;101434.53;5045522;28;20024;-58
2022/08/23 06:56:54;;;;;;;82.38;41.60;;;;;;;18.34;75.69;101425.75;5050000;28;20045;-58
2022/08/23 06:59:20;;;;;;;65.25;38.80;;;;;;;18.38;75.78;101430.16;5050969;28;20044;-58
2022/08/23 07:01:52;;;;;;;65.20;37.78;;;;;;;18.39;76.57;101424.88;5048324;28;20033;-59
2022/08/23 07:04:24;;;;;;;58.58;34.40;;;;;;;18.43;75.43;101423.09;5049345;28;20443;-58
2022/08/23 07:06:50;;;;;;;58.25;34.30;;;;;;;18.47;75.78;101427.50;5044924;28;20017;-58
2022/08/23 07:09:15;;;;;;;53.38;31.38;;;;;;;18.54;75.42;101436.31;5048391;28;20594;-58
2022/08/23 07:11:41;;;;;;;52.05;30.40;;;;;;;18.57;75.45;101442.47;5047999;28;20392;-59
2022/08/23 07:14:10;;;;;;;51.70;28.67;;;;;;;18.62;75.09;101438.94;5046246;28;20044;-58
2022/08/23 07:16:38;;;;;;;44.00;27.23;;;;;;;18.68;74.99;101438.94;5044453;28;20025;-58
2022/08/23 07:19:04;;;;;;;39.30;27.05;;;;;;;18.71;75.14;101444.22;5047318;28;20025;-58
2022/08/23 07:21:30;;;;;;;41.33;25.15;;;;;;;18.77;74.31;101441.59;5040520;28;20029;-58
2022/08/23 07:23:55;;;;;;;41.25;25.70;;;;;;;18.82;73.70;101431.03;5042483;28;20060;-58
2022/08/23 07:26:22;;;;;;;40.25;24.65;;;;;;;18.87;74.29;101440.72;5031203;28;20116;-58
2022/08/23 07:28:49;;;;;;;35.28;22.80;;;;;;;18.94;74.13;101441.59;5039937;28;20527;-58
2022/08/23 07:31:25;;;;;;;32.80;23.08;;;;;;;18.99;73.96;101438.94;5048581;28;20056;-58
2022/08/23 07:33:53;;;;;;;34.30;23.63;;;;;;;19.07;73.92;101453.91;5047737;28;20584;-58
2022/08/23 07:36:21;;;;;;;35.90;25.02;;;;;;;19.16;72.64;101455.66;5046812;28;20515;-58
2022/08/23 07:38:47;;;;;;;34.00;23.70;;;;;;;19.21;73.04;101453.88;5047849;28;20017;-57
2022/08/23 07:41:13;;;;;;;32.55;22.85;;;;;;;19.28;71.94;101457.38;5043285;28;20566;-58
2022/08/23 07:43:39;;;;;;;34.92;23.42;;;;;;;19.34;71.58;101456.50;5043766;28;20024;-57
2022/08/23 07:46:06;;;;;;;30.80;22.80;;;;;;;19.39;71.40;101459.97;5041798;28;20037;-58
2022/08/23 07:48:32;;;;;;;31.05;22.65;;;;;;;19.47;71.16;101458.19;5042734;28;20493;-58
2022/08/23 07:51:00;;;;;;;30.95;22.10;;;;;;;19.53;72.41;101468.75;5040680;28;20914;-58
2022/08/23 07:53:26;;;;;;;29.38;21.65;;;;;;;19.64;71.13;101469.59;5042608;28;20025;-58
2022/08/23 07:55:52;;;;;;;30.65;21.92;;;;;;;19.68;70.98;101469.56;5035850;28;20031;-58
2022/08/23 07:58:19;;;;;;;27.65;20.88;;;;;;;19.72;70.89;101468.69;5042496;28;20118;-58
2022/08/23 08:00:45;;;;;;;27.23;19.70;;;;;;;19.79;71.07;101462.50;5044410;28;20017;-58
2022/08/23 08:03:13;;;;;;;29.65;20.63;;;;;;;19.87;70.54;101466.00;5050232;28;20039;-59
2022/08/23 08:05:39;;;;;;;28.57;20.13;;;;;;;19.94;70.36;101473.03;5040039;28;20029;-58
2022/08/23 08:08:06;;;;;;;25.55;18.58;;;;;;;20.05;71.07;101474.72;5046079;28;20025;-57
2022/08/23 08:10:34;;;;;;;23.65;18.02;;;;;;;20.13;70.23;101470.25;5043110;28;20037;-58
2022/08/23 08:13:00;;;;;;;24.15;18.88;;;;;;;20.17;70.60;101474.63;5040510;28;20079;-58
2022/08/23 08:15:25;;;;;;;24.35;18.65;;;;;;;20.26;69.53;101473.69;5034070;28;20492;-58
2022/08/23 08:17:50;;;;;;;23.95;17.85;;;;;;;20.30;68.84;101475.44;5042803;28;20447;-58
2022/08/23 08:20:18;;;;;;;25.38;18.52;;;;;;;20.39;69.38;101474.50;5027938;28;20034;-58
2022/08/23 08:22:44;;;;;;;27.55;17.88;;;;;;;20.47;69.56;101477.97;5047392;28;20132;-59
2022/08/23 08:25:11;;;;;;;25.27;18.58;;;;;;;20.52;69.35;101484.09;5046395;28;20041;-58
2022/08/23 08:27:36;;;;;;;21.73;16.38;;;;;;;20.60;69.97;101484.94;5039766;28;20021;-60
2022/08/23 08:30:03;;;;;;;20.75;16.02;;;;;;;20.71;69.67;101489.28;5038067;28;20116;-58
2022/08/23 08:32:29;;;;;;;24.60;16.15;;;;;;;20.79;68.61;101485.69;5039546;28;20025;-58
2022/08/23 08:34:54;;;;;;;18.98;15.20;;;;;;;20.89;67.92;101477.69;5048122;28;20036;-58
2022/08/23 08:37:19;;;;;;;19.50;14.00;;;;;;;20.97;66.76;101484.66;5042507;28;20021;-58
2022/08/23 08:39:44;;;;;;;22.85;15.05;;;;;;;21.07;66.49;101479.25;5039137;28;20017;-58
2022/08/23 08:42:31;;;;;;;21.15;15.02;;;;;;;21.28;66.12;101486.13;5046535;28;20049;-58
2022/08/23 08:45:08;;;;;;;22.92;14.50;;;;;;;21.46;65.42;101490.34;5045311;28;20033;-59
2022/08/23 08:48:23;;;;;;;20.42;13.60;;;;;;;21.62;66.49;101486.63;5042534;28;20167;-58
2022/08/23 08:50:58;;;;;;;15.93;11.60;;;;;;;21.78;64.14;101481.13;4979161;28;20505;-58
2022/08/23 08:53:32;;;;;;;17.88;11.02;;;;;;;21.87;63.12;101481.91;5027718;28;20045;-58
2022/08/23 08:56:01;;;;;;;16.35;11.60;;;;;;;21.93;63.80;101490.66;5045480;28;20025;-58
2022/08/23 08:58:44;;;;;;;18.77;11.10;;;;;;;22.05;62.86;101488.72;5043248;28;20025;-57
2022/08/23 09:01:09;;;;;;;15.25;10.18;;;;;;;22.13;63.59;101501.00;5033139;28;20112;-59
2022/08/23 09:03:35;;;;;;;18.35;10.82;;;;;;;22.25;63.40;101495.53;5024567;28;20457;-58
2022/08/23 09:06:13;;;;;;;19.17;11.57;;;;;;;22.36;63.97;101495.41;5043954;28;20036;-59
2022/08/23 09:09:01;;;;;;;18.75;10.55;;;;;;;22.50;62.45;101506.69;5045044;28;20072;-59
2022/08/23 09:11:44;;;;;;;15.13;9.65;;;;;;;22.67;62.70;101500.25;5046450;28;20036;-61
2022/08/23 09:14:21;;;;;;;20.35;10.23;;;;;;;22.79;62.60;101501.81;5043098;28;20028;-61
2022/08/23 09:16:53;;;;;;;15.32;9.77;;;;;;;22.89;60.93;101496.31;5046067;28;20029;-58
2022/08/23 09:19:22;;;;;;;13.77;9.57;;;;;;;22.96;61.26;101494.44;5041420;28;20021;-58
2022/08/23 09:21:56;;;;;;;16.95;10.18;;;;;;;23.15;61.76;101496.81;5040392;28;20049;-58
2022/08/23 09:24:21;;;;;;;16.25;9.68;;;;;;;23.25;63.05;101501.03;5038255;28;20029;-58
2022/08/23 09:26:47;;;;;;;17.05;9.13;;;;;;;23.38;61.84;101505.22;5041725;28;20392;-59
2022/08/23 09:29:19;;;;;;;15.40;8.40;;;;;;;23.56;61.43;101501.28;5040064;28;20020;-59
2022/08/23 09:32:00;;;;;;;13.65;8.50;;;;;;;23.74;60.13;101502.72;5044800;28;20025;-58
2022/08/23 09:34:33;;;;;;;15.65;7.90;;;;;;;23.82;60.22;101499.88;5042680;28;20087;-56
2022/08/23 09:37:16;;;;;;;11.95;7.75;;;;;;;24.01;59.88;101505.72;5038933;28;20106;-58
2022/08/23 09:39:50;;;;;;;13.70;7.18;;;;;;;24.10;56.87;101499.31;5036100;28;20072;-59
2022/08/23 09:42:32;;;;;;;14.63;7.28;;;;;;;24.20;58.69;101506.22;5033523;28;20182;-57
2022/08/23 09:44:58;;;;;;;13.90;7.00;;;;;;;24.28;57.34;101501.56;5042299;28;20136;-58
2022/08/23 09:47:36;;;;;;;12.90;6.78;;;;;;;24.36;57.69;101501.41;5039806;28;20116;-57
2022/08/23 09:50:26;;;;;;;10.38;6.63;;;;;;;24.46;58.00;101500.28;5044997;28;20044;-58
2022/08/23 09:53:01;;;;;;;13.18;6.45;;;;;;;24.51;57.18;101505.47;5043980;28;20475;-58
2022/08/23 09:55:37;;;;;;;10.85;5.95;;;;;;;24.64;57.00;101496.28;5039761;28;20107;-58
2022/08/23 09:58:14;;;;;;;10.55;4.70;;;;;;;24.64;56.94;101500.75;5042738;28;20373;-59
2022/08/23 10:00:39;;;;;;;10.02;5.05;;;;;;;24.71;55.30;101498.81;5048755;28;20035;-58
2022/08/23 10:03:26;;;;;;;8.90;5.65;;;;;;;24.81;56.82;101493.22;5050486;28;20025;-59
2022/08/23 10:05:58;;;;;;;10.63;5.88;;;;;;;24.90;55.85;101483.25;5042100;28;20021;-60
2022/08/23 10:08:27;;;;;;;9.52;6.13;;;;;;;25.02;55.90;101484.69;5043048;28;20022;-60
2022/08/23 10:10:57;;;;;;;7.75;4.65;;;;;;;25.14;54.94;101482.59;5039507;28;20031;-56
2022/08/23 10:13:23;;;;;;;7.95;4.30;;;;;;;25.29;54.12;101483.94;5050485;28;20423;-57
2022/08/23 10:16:07;;;;;;;10.82;5.03;;;;;;;25.33;55.08;101484.75;5045902;28;20033;-56
2022/08/23 10:18:51;;;;;;;7.80;4.97;;;;;;;25.50;54.61;101481.63;5046109;28;20024;-56
2022/08/23 10:21:22;;;;;;;9.32;5.38;;;;;;;25.57;54.50;101480.53;5050183;28;20032;-56
2022/08/23 10:24:13;;;;;;;8.30;4.78;;;;;;;25.76;53.54;101485.31;5043429;28;20033;-57
2022/08/23 10:26:48;;;;;;;8.02;3.78;;;;;;;25.83;52.88;101481.56;5047754;28;20083;-56
2022/08/23 10:29:47;;;;;;;8.90;3.75;;;;;;;25.98;51.22;101489.09;5042276;28;20032;-56
2022/08/23 10:32:54;;;;;;;5.60;3.50;;;;;;;26.10;50.39;101484.31;5047227;28;20043;-58
2022/08/23 10:35:20;;;;;;;8.48;4.20;;;;;;;26.18;50.41;101484.97;5027277;28;20415;-57
2022/08/23 10:37:45;;;;;;;7.47;4.22;;;;;;;26.27;48.05;101481.97;5047167;28;20040;-57
2022/08/23 10:40:24;;;;;;;7.17;3.33;;;;;;;26.24;49.78;101473.22;5045113;28;20399;-57
2022/08/23 10:43:04;;;;;;;8.43;4.00;;;;;;;26.35;50.32;101471.06;5047607;28;20045;-58
2022/08/23 10:45:39;;;;;;;9.50;3.97;;;;;;;26.43;50.68;101478.81;5045947;28;20139;-58
2022/08/23 10:48:28;;;;;;;7.05;3.88;;;;;;;26.55;50.98;101478.44;5050366;28;20029;-58
2022/08/23 10:51:16;;;;;;;8.70;4.03;;;;;;;26.71;49.20;101474.34;5042034;28;20041;-58
2022/08/23 10:53:46;;;;;;;8.38;3.97;;;;;;;26.75;50.10;101461.75;5043190;28;20044;-57
2022/08/23 10:56:22;;;;;;;7.60;3.72;;;;;;;26.89;51.42;101464.78;5042806;28;20032;-57
2022/08/23 10:58:53;;;;;;;8.43;3.88;;;;;;;26.93;47.62;101465.56;5038474;28;20017;-56
2022/08/23 11:01:22;;;;;;;5.57;3.70;;;;;;;26.99;48.23;101460.00;5045393;28;20075;-56
2022/08/23 11:04:08;;;;;;;8.23;4.07;;;;;;;27.09;48.63;101470.41;5046326;28;20100;-56
2022/08/23 11:06:34;;;;;;;8.77;4.45;;;;;;;27.11;46.61;101471.19;5044517;28;20442;-55
2022/08/23 11:09:08;;;;;;;8.10;4.27;;;;;;;27.18;48.06;101462.88;5042304;28;20031;-56
2022/08/23 11:11:45;;;;;;;7.10;3.75;;;;;;;27.25;46.03;101464.41;5046128;28;20278;-57
2022/08/23 11:14:30;;;;;;;7.22;3.50;;;;;;;27.35;47.44;101464.13;5049837;28;20025;-57
2022/08/23 11:17:01;;;;;;;7.85;3.30;;;;;;;27.38;45.29;101458.66;5035578;28;20037;-58
2022/08/23 11:20:08;;;;;;;6.25;3.30;;;;;;;27.45;48.18;101460.19;5043534;28;20031;-60
2022/08/23 11:23:14;;;;;;;11.93;4.05;;;;;;;27.54;47.65;101465.16;4964873;28;20058;-60
2022/08/23 11:25:41;;;;;;;8.95;3.30;;;;;;;27.57;46.22;101470.41;4948676;28;20043;-58
2022/08/23 11:28:24;;;;;;;7.30;3.60;;;;;;;27.66;46.34;101471.00;5027612;28;20047;-57
2022/08/23 11:31:20;;;;;;;11.85;3.90;;;;;;;27.72;47.61;101463.59;5046037;28;20501;-56